• Join FlightAware (Why Join?)
  • Login
  • US Flag 
08:15PM EDT


 

Airport Tracker/Info


-or-


 

Live Flight TrackerFlight Track Log ✈ UAL102 ✈ 02-May-2013 ✈ KSFO - KDCA

Flight Track Log - Related Links

Times and Time Zones

All times are in EDT time to prevent confusion due to time zone crossing. See the UAL102 flight status page for this flight to view local times or setup timezone preferences in your user account.

Time Position Orientation Groundspeed Altitude Reporting Facility
EDT Latitude Longitude Course Direction KTS MPH feet Rate Location/Type
05:03PM 37.6333 -122.3500 67° East 150 173 1,000  Level Northern Cal TRACON
05:04PM 37.6833 -122.3000 38° Northeast 226 260 3,600 2,280 Climbing Northern Cal TRACON
05:05PM 37.6981 -122.2756 53° Northeast 225 259 4,600 2,640 Climbing Oakland Center
05:06PM 37.6342 -122.4219 120° Southeast  Level FlightAware Approximate
05:06PM 37.7525 -122.2042 46° Northeast 273 314 7,600  Level Oakland Center
05:07PM 37.6439 -122.2744 72° East  Level FlightAware Approximate
05:07PM 37.8111 -122.1272 46° Northeast 297 342 10,700  Level Oakland Center
05:08PM 37.6939 -122.1290 58° Northeast  Level FlightAware Approximate
05:08PM 37.8806 -122.0444 43° Northeast 343 395 13,700  Level Oakland Center
05:09PM 37.7399 -121.9804 67° East  Level FlightAware Approximate
05:09PM 37.9178 -121.9031 72° East 362 417 16,900  Level Oakland Center
05:10PM 37.9408 -121.7719 77° East 381 438 19,400 1,920 Climbing Oakland Center
05:11PM 37.9647 -121.6383 77° East 389 448 20,900 780 Climbing Oakland Center
05:12PM 37.9875 -121.5025 78° East 395 455 21,000 1,200 Climbing Oakland Center
05:13PM 38.0133 -121.3569 77° East 400 460 23,400 2,040 Climbing Oakland Center
05:14PM 38.0383 -121.2156 77° East 411 473 25,300 1,740 Climbing Oakland Center
05:15PM 38.0681 -121.0692 75° East 428 493 27,000 1,560 Climbing Oakland Center
05:16PM 38.1158 -120.9253 67° East 445 512 28,600 1,560 Climbing Oakland Center
05:17PM 38.1636 -120.7783 67° East 451 519 30,200 1,440 Climbing Oakland Center
05:18PM 38.2072 -120.6244 70° East 465 535 31,600 1,620 Climbing Oakland Center
05:19PM 38.2381 -120.4303 79° East 469 540 33,600 1,560 Climbing Oakland Center
05:20PM 38.2650 -120.2675 78° East 472 543 34,900 1,200 Climbing Oakland Center
05:21PM 38.2908 -120.1047 79° East 470 541 36,100 1,080 Climbing Oakland Center
05:22PM 38.3189 -119.9403 78° East 475 547 37,200 960 Climbing Oakland Center
05:23PM 38.3458 -119.7767 78° East 474 545 38,100 840 Climbing Oakland Center
05:24PM 38.3725 -119.6128 78° East 474 545 39,000 420 Climbing Oakland Center
05:25PM 38.4039 -119.4236 78° East 474 545 39,000  Level Oakland Center
05:26PM 38.4300 -119.2597 78° East 474 545 39,000  Level Oakland Center
05:27PM 38.4561 -119.0967 78° East 472 543 39,000  Level Oakland Center
05:28PM 38.4817 -118.9311 79° East 476 548 39,000  Level Oakland Center
05:29PM 38.5075 -118.7681 79° East 473 544 39,000  Level Oakland Center
05:30PM 38.5325 -118.6039 79° East 474 545 39,000  Level Oakland Center
05:31PM 38.5586 -118.4394 78° East 474 545 39,000  Level Oakland Center
05:32PM 38.5833 -118.2756 79° East 473 544 39,000  Level Oakland Center
05:33PM 38.6125 -118.0781 79° East 473 544 39,000  Level Oakland Center
05:34PM 38.6347 -117.9311 79° East 475 547 39,000  Level Oakland Center
05:35PM 38.6614 -117.7486 79° East 472 543 39,000  Level Oakland Center
05:37PM 38.6828 -117.5992 80° East 472 543 39,000  Level Oakland Center
05:38PM 38.7119 -117.4000 79° East 471 542 39,000  Level Oakland Center
05:38PM 38.7161 -117.3664 81° East 472 543 39,000  Level Salt Lake Center
05:39PM 38.7389 -117.1997 80° East 473 544 39,000  Level Salt Lake Center
05:40PM 38.7578 -117.0667 80° East 472 543 39,000  Level Oakland Center
05:41PM 38.7817 -116.9008 79° East 470 541 39,000  Level Oakland Center
05:41PM 38.7900 -116.8344 81° East 471 542 39,000  Level Salt Lake Center
05:42PM 38.8125 -116.6686 80° East 470 541 39,000  Level Salt Lake Center
05:43PM 38.8261 -116.5686 80° East 471 542 39,000 -120 Level Oakland Center
05:44PM 38.8489 -116.4025 80° East 471 542 38,900  Descending Oakland Center
05:44PM 38.8575 -116.3356 81° East 474 545 39,000 60 Climbing Salt Lake Center
05:45PM 38.8786 -116.1714 81° East 468 539 39,000  Level Salt Lake Center
05:46PM 38.9003 -116.0067 80° East 467 537 39,000  Level Salt Lake Center
05:47PM 38.9219 -115.8425 80° East 467 537 39,000  Level Salt Lake Center
05:48PM 38.9469 -115.6442 81° East 469 540 39,000  Level Salt Lake Center
05:49PM 38.9675 -115.4789 81° East 468 539 39,000  Level Salt Lake Center
05:50PM 38.9869 -115.3322 80° East 468 539 39,000  Level Salt Lake Center
05:51PM 39.0114 -115.1344 81° East 470 541 39,000  Level Salt Lake Center
05:52PM 39.0317 -114.9692 81° East 468 539 39,000  Level Salt Lake Center
05:53PM 39.0511 -114.8039 81° East 468 539 39,000  Level Salt Lake Center
05:54PM 39.0711 -114.6367 81° East 472 543 39,000  Level Salt Lake Center
05:55PM 39.0911 -114.4708 81° East 469 540 39,000  Level Salt Lake Center
05:56PM 39.1108 -114.3058 81° East 468 539 39,000  Level Salt Lake Center
05:57PM 39.1292 -114.1400 82° East 468 539 39,000  Level Salt Lake Center
05:59PM 39.1519 -113.9417 82° East 467 537 39,000  Level Salt Lake Center
06:00PM 39.1697 -113.7775 82° East 464 534 39,000  Level Salt Lake Center
06:01PM 39.1881 -113.6108 82° East 468 539 39,000  Level Salt Lake Center
06:02PM 39.2064 -113.4444 82° East 469 540 39,000  Level Salt Lake Center
06:03PM 39.2231 -113.2789 83° East 467 537 39,000  Level Salt Lake Center
06:04PM 39.2406 -113.1103 82° East 471 542 39,000  Level Salt Lake Center
06:05PM 39.2583 -112.9433 82° East 471 542 39,000  Level Salt Lake Center
06:06PM 39.2786 -112.7433 82° East 469 540 39,000  Level Salt Lake Center
06:07PM 39.2939 -112.5986 82° East 467 537 39,000  Level Salt Lake Center
06:08PM 39.3153 -112.4361 80° East 462 532 39,000  Level Salt Lake Center
06:09PM 39.3528 -112.2450 76° East 460 529 39,000  Level Salt Lake Center
06:10PM 39.3814 -112.0853 77° East 459 528 39,000  Level Salt Lake Center
06:11PM 39.4117 -111.9272 76° East 457 526 39,000  Level Salt Lake Center
06:12PM 39.4406 -111.7653 77° East 461 531 39,000  Level Salt Lake Center
06:13PM 39.4697 -111.6056 77° East 460 529 39,000  Level Salt Lake Center
06:14PM 39.4981 -111.4453 77° East 460 529 39,000  Level Salt Lake Center
06:15PM 39.5306 -111.2647 77° East 459 528 39,000  Level Salt Lake Center
06:16PM 39.5617 -111.0869 77° East 454 522 39,000  Level Salt Lake Center
06:17PM 39.5872 -110.9375 77° East 447 514 39,000  Level Salt Lake Center
06:18PM 39.6136 -110.7878 77° East 444 511 39,000  Level Salt Lake Center
06:19PM 39.6433 -110.6119 78° East 446 513 39,000  Level Salt Lake Center
06:20PM 39.6689 -110.4606 78° East 448 516 39,000  Level Salt Lake Center
06:21PM 39.6986 -110.2822 78° East 452 520 39,000  Level Salt Lake Center
06:22PM 39.7244 -110.1289 78° East 454 522 39,000  Level Salt Lake Center
06:23PM 39.7539 -109.9514 78° East 452 520 39,000  Level Salt Lake Center
06:24PM 39.7789 -109.7975 78° East 455 524 39,000  Level Salt Lake Center
06:25PM 39.8039 -109.6436 78° East 454 522 39,000  Level Salt Lake Center
06:26PM 39.8203 -109.5397 78° East 454 522 39,000  Level Denver Center
06:27PM 39.8486 -109.3617 78° East 451 519 39,000  Level Denver Center
06:27PM 39.8564 -109.3122 78° East 450 518 39,000  Level Salt Lake Center
06:28PM 39.8850 -109.1328 78° East 451 519 39,000  Level Salt Lake Center
06:29PM 39.9092 -108.9789 78° East 451 519 39,000  Level Salt Lake Center
06:30PM 39.9367 -108.8003 79° East 447 514 39,000  Level Salt Lake Center
06:31PM 39.9494 -108.7225 78° East 449 517 39,000  Level Denver Center
06:32PM 39.9789 -108.5178 79° East 447 514 39,000  Level Denver Center
06:33PM 40.0022 -108.3633 79° East 451 519 39,000  Level Denver Center
06:34PM 40.0289 -108.1847 79° East 448 516 39,000  Level Denver Center
06:35PM 40.0519 -108.0297 79° East 453 521 39,000  Level Denver Center
06:36PM 40.0736 -107.8469 81° East 456 525 39,000  Level Denver Center
06:37PM 40.0861 -107.6894 84° East 456 525 39,000  Level Denver Center
06:39PM 40.1028 -107.5061 83° East 457 526 39,000  Level Denver Center
06:40PM 40.1147 -107.3519 84° East 449 517 39,000  Level Denver Center
06:41PM 40.1300 -107.1706 84° East 448 516 39,000  Level Denver Center
06:42PM 40.1419 -107.0164 84° East 445 512 39,000  Level Denver Center
06:43PM 40.1553 -106.8367 84° East 447 514 39,000  Level Denver Center
06:44PM 40.1675 -106.6822 84° East 447 514 39,000  Level Denver Center
06:45PM 40.1797 -106.5106 85° East 449 517 39,000  Level Denver Center
06:46PM 40.1917 -106.3567 84° East 448 516 39,000  Level Denver Center
06:47PM 40.2017 -106.1928 85° East 448 516 39,000  Level Denver Center
06:48PM 40.2192 -105.9731 84° East 449 517 39,000  Level Denver Center
06:49PM 40.2300 -105.8083 85° East 450 518 39,000  Level Denver Center
06:50PM 40.2397 -105.6442 86° East 449 517 39,000  Level Denver Center
06:51PM 40.2514 -105.4769 85° East 453 521 39,000  Level Denver Center
06:52PM 40.2617 -105.3083 85° East 457 526 39,000  Level Denver Center
06:53PM 40.2750 -105.0831 85° East 459 528 39,000  Level Denver Center
06:54PM 40.2825 -104.9692 85° East 464 534 39,000  Level Denver Center
06:55PM 40.2953 -104.7475 86° East 453 521 39,000  Level Denver Center
06:56PM 40.3056 -104.5775 85° East 459 528 39,000  Level Denver Center
06:58PM 40.3144 -104.4103 86° East 454 522 39,000  Level Denver Center
06:59PM 40.3244 -104.2431 85° East 453 521 39,000  Level Denver Center
07:00PM 40.3314 -104.0794 87° East 445 512 39,000  Level Denver Center
07:01PM 40.3403 -103.9122 86° East 455 524 39,000  Level Denver Center
07:02PM 40.3483 -103.7503 86° East 439 505 39,000  Level Denver Center
07:03PM 40.3583 -103.5581 86° East 447 514 39,000  Level Denver Center
07:04PM 40.3636 -103.4489 86° East 447 514 39,000  Level Denver Center
07:05PM 40.3733 -103.2292 87° East 448 516 39,000  Level Denver Center
07:06PM 40.3806 -103.0639 87° East 450 518 39,000  Level Denver Center
07:07PM 40.3875 -102.8947 87° East 458 527 39,000  Level Denver Center
07:08PM 40.3947 -102.7258 87° East 461 531 39,000  Level Denver Center
07:09PM 40.4014 -102.5506 87° East 457 526 39,000  Level Denver Center
07:10PM 40.4086 -102.3642 87° East 458 527 39,000  Level Denver Center
07:11PM 40.4144 -102.2061 87° East 455 524 39,000  Level Denver Center
07:12PM 40.4203 -102.0469 87° East 456 525 39,000  Level Denver Center
07:13PM 40.4261 -101.8586 88° East 462 532 39,000  Level Denver Center
07:14PM 40.4319 -101.6983 87° East 460 529 39,000  Level Denver Center
07:15PM 40.4367 -101.5369 88° East 462 532 39,000  Level Denver Center
07:16PM 40.4414 -101.3772 88° East 460 529 39,000  Level Denver Center
07:17PM 40.4475 -101.1653 88° East 456 525 39,000  Level Denver Center
07:18PM 40.4517 -101.0072 88° East 456 525 39,000  Level Denver Center
07:19PM 40.4578 -100.8231 87° East 456 525 39,000  Level Denver Center
07:20PM 40.4667 -100.6672 86° East 453 521 39,000  Level Denver Center
07:21PM 40.4758 -100.4844 86° East 454 522 39,000  Level Denver Center
07:22PM 40.4836 -100.2994 87° East 458 527 39,000  Level Denver Center
07:23PM 40.4906 -100.1408 87° East 459 528 39,000  Level Denver Center
07:24PM 40.4958 -100.0078 87° East 459 528 39,000  Level Denver Center
07:25PM 40.5047 -99.8147 86° East 461 531 39,000  Level Denver Center
07:26PM 40.5125 -99.6081 87° East 470 541 39,000  Level Denver Center
07:27PM 40.5200 -99.4389 87° East 466 536 39,000  Level Denver Center
07:29PM 40.5253 -99.2667 88° East 472 543 39,000  Level Denver Center
07:30PM 40.5328 -99.0650 87° East 469 540 39,000  Level Minneapolis Center
07:31PM 40.5386 -98.8961 87° East 467 537 39,000  Level Minneapolis Center
07:32PM 40.5436 -98.7272 88° East 466 536 39,000  Level Minneapolis Center
07:33PM 40.5486 -98.5589 88° East 465 535 39,000  Level Minneapolis Center
07:34PM 40.5542 -98.3917 87° East 463 533 39,000  Level Minneapolis Center
07:35PM 40.5600 -98.1903 88° East 461 531 39,000  Level Minneapolis Center
07:36PM 40.5642 -97.9892 88° East 460 529 39,000  Level Minneapolis Center
07:37PM 40.5683 -97.8225 88° East 458 527 39,000  Level Minneapolis Center
07:38PM 40.5725 -97.6567 88° East 456 525 39,000  Level Minneapolis Center
07:39PM 40.5756 -97.4897 89° East 456 525 39,000  Level Minneapolis Center
07:40PM 40.5797 -97.3261 88° East 457 526 39,000  Level Minneapolis Center
07:41PM 40.5819 -97.1597 89° East 456 525 39,000  Level Minneapolis Center
07:42PM 40.5861 -96.9594 88° East 457 526 39,000  Level Minneapolis Center
07:43PM 40.5883 -96.7908 89° East 461 531 39,000  Level Minneapolis Center
07:44PM 40.5911 -96.6225 89° East 462 532 39,000  Level Minneapolis Center
07:45PM 40.5933 -96.4539 89° East 463 533 39,000  Level Minneapolis Center
07:46PM 40.5950 -96.3208 89° East 461 531 39,000  Level Minneapolis Center
07:47PM 40.5964 -96.1200 89° East 460 529 39,000  Level Minneapolis Center
07:48PM 40.5986 -95.9214 89° East 457 526 39,000  Level Minneapolis Center
07:49PM 40.5992 -95.7550 90° East 457 526 39,000  Level Minneapolis Center
07:50PM 40.6006 -95.5867 89° East 461 531 39,000  Level Minneapolis Center
07:51PM 40.6003 -95.4197 90° East 460 529 39,000  Level Minneapolis Center
07:53PM 40.6022 -95.2503 89° East 462 532 39,000  Level Minneapolis Center
07:54PM 40.6031 -95.0822 90° East 463 533 39,000  Level Minneapolis Center
07:55PM 40.6017 -94.8461 90° East 463 533 39,000  Level Minneapolis Center
07:56PM 40.6017 -94.6767 90° East 465 535 39,000  Level Minneapolis Center
07:57PM 40.6008 -94.5203 90° East 463 533 39,000  Level Minneapolis Center
07:58PM 40.6003 -94.3536 90° East 460 529 39,000  Level Minneapolis Center
07:59PM 40.5975 -94.2228 92° East 455 524 39,000  Level Minneapolis Center
08:00PM 40.5953 -93.9917 91° East 454 522 39,000  Level Minneapolis Center
08:01PM 40.5936 -93.8283 91° East 451 519 39,000  Level Minneapolis Center
08:02PM 40.5889 -93.6661 92° East 449 517 39,000  Level Minneapolis Center
08:03PM 40.5847 -93.5039 92° East 447 514 39,000  Level Minneapolis Center
08:04PM 40.5839 -93.3728 90° East 446 513 39,000  Level Kansas City Center
08:05PM 40.5786 -93.2131 92° East 442 509 39,000  Level Kansas City Center
08:06PM 40.5733 -93.0533 92° East 439 505 39,000  Level Kansas City Center
08:07PM 40.5681 -92.8703 92° East 434 499 39,000  Level Kansas City Center
08:08PM 40.5644 -92.7183 92° East 433 498 39,000  Level Kansas City Center
08:09PM 40.5614 -92.5700 92° East 436 502 39,000  Level Kansas City Center
08:10PM 40.5544 -92.3789 93° East 437 503 39,000  Level Kansas City Center
08:11PM 40.5489 -92.2236 93° East 436 502 39,000  Level Kansas City Center
08:12PM 40.5433 -92.0636 93° East 438 504 39,000  Level Kansas City Center
08:13PM 40.5386 -91.9044 92° East 438 504 39,000  Level Kansas City Center
08:14PM 40.5314 -91.7453 93° East 438 504 39,000  Level Kansas City Center
08:15PM 40.5242 -91.5867 93° East 438 504 39,000  Level Kansas City Center
08:16PM 40.5161 -91.3953 93° East 440 506 39,000  Level Kansas City Center
08:17PM 40.5117 -91.2308 92° East 439 505 39,000  Level Chicago Center
08:18PM 40.5039 -91.0706 94° East 440 506 39,000  Level Chicago Center
08:19PM 40.4961 -90.9100 94° East 441 507 39,000  Level Chicago Center
08:20PM 40.4894 -90.7508 93° East 438 504 39,000  Level Chicago Center
08:21PM 40.4817 -90.5906 94° East 440 506 39,000  Level Chicago Center
08:22PM 40.4742 -90.4314 93° East 440 506 39,000  Level Chicago Center
08:23PM 40.4633 -90.2419 94° East 437 503 39,000  Level Chicago Center
08:24PM 40.4547 -90.0844 94° East 436 502 39,000  Level Chicago Center
08:26PM 40.4372 -89.7681 94° East 440 506 39,000  Level Kansas City Center
08:28PM 40.4264 -89.5769 94° East 443 510 39,000  Level Chicago Center
08:29PM 40.4178 -89.4164 94° East 443 510 39,000  Level Chicago Center
08:30PM 40.4078 -89.2572 95° East 442 509 39,000  Level Chicago Center
08:31PM 40.3989 -89.0956 94° East 445 512 39,000  Level Chicago Center
08:32PM 40.3894 -88.9347 94° East 445 512 39,000  Level Chicago Center
08:33PM 40.3797 -88.7750 95° East 442 509 39,000  Level Chicago Center
08:34PM 40.3658 -88.5850 95° East 439 505 39,000  Level Chicago Center
08:35PM 40.3561 -88.4303 95° East 437 503 39,000  Level Chicago Center
08:36PM 40.3450 -88.2736 95° East 436 502 39,000  Level Chicago Center
08:37PM 40.3347 -88.1167 95° East 436 502 39,000  Level Chicago Center
08:38PM 40.3219 -87.9283 95° East 436 502 39,000  Level Chicago Center
08:39PM 40.3100 -87.7911 96° East 436 502 39,000  Level Indianapolis Center
08:40PM 40.2992 -87.6319 95° East 438 504 39,000  Level Indianapolis Center
08:41PM 40.2931 -87.4739 93° East 436 502 39,000  Level Indianapolis Center
08:42PM 40.2911 -87.3153 91° East 436 502 39,000  Level Indianapolis Center
08:43PM 40.2903 -87.1553 90° East 440 506 39,000  Level Indianapolis Center
08:44PM 40.2900 -86.9653 90° East 439 505 39,000  Level Chicago Center
08:45PM 40.2875 -86.8081 91° East 435 501 39,000  Level Chicago Center
08:46PM 40.2844 -86.6203 91° East 431 496 39,000  Level Chicago Center
08:47PM 40.2817 -86.4642 91° East 429 494 39,000 120 Level Chicago Center
08:48PM 40.2794 -86.3058 91° East 431 496 39,300 600 Climbing Chicago Center
08:49PM 40.2767 -86.1444 91° East 439 505 40,300 780 Climbing Chicago Center
08:50PM 40.2722 -85.9839 92° East 440 506 41,000 300 Climbing Chicago Center
08:51PM 40.2697 -85.8244 91° East 439 505 41,000  Level Chicago Center
08:52PM 40.2653 -85.6647 92° East 439 505 41,000  Level Chicago Center
08:53PM 40.2594 -85.4725 92° East 442 509 41,000  Level Chicago Center
08:54PM 40.2553 -85.3169 92° East 435 501 41,000  Level Chicago Center
08:55PM 40.2519 -85.2231 93° East 436 502 41,000  Level Indianapolis Center
08:56PM 40.2469 -85.0364 92° East 430 495 41,000  Level Indianapolis Center
08:57PM 40.2433 -84.8750 92° East 433 498 41,000 -60 Level Indianapolis Center
08:58PM 40.2394 -84.7186 92° East 428 493 40,900  Descending Indianapolis Center
08:59PM 40.2331 -84.5600 93° East 434 499 41,000  Climbing Indianapolis Center
09:00PM 40.2275 -84.4008 93° East 433 498 40,900 -60 Descending Indianapolis Center
09:01PM 40.2222 -84.2417 92° East 434 499 40,900  Level Indianapolis Center
09:02PM 40.2158 -84.0819 93° East 433 498 40,900  Level Indianapolis Center
09:03PM 40.2117 -83.9211 92° East 437 503 41,000  Climbing Indianapolis Center
09:04PM 40.2042 -83.7589 93° East 440 506 41,000  Level Indianapolis Center
09:05PM 40.1975 -83.5950 93° East 443 510 41,000  Level Indianapolis Center
09:06PM 40.1906 -83.4286 93° East 449 517 41,000  Level Indianapolis Center
09:07PM 40.1650 -83.2706 102° East 443 510 41,000  Level Indianapolis Center
09:08PM 40.1286 -83.1156 107° East 440 506 41,000  Level Indianapolis Center
09:09PM 40.0914 -82.9631 108° East 435 501 41,000 -60 Level Indianapolis Center
09:11PM 40.0553 -82.8128 107° East 431 496 40,900  Descending Indianapolis Center
09:12PM 40.0200 -82.6639 107° East 426 490 41,000  Climbing Indianapolis Center
09:13PM 39.9839 -82.5136 107° East 427 491 41,000 -60 Level Indianapolis Center
09:14PM 39.9483 -82.3650 107° East 427 491 40,900  Descending Indianapolis Center
09:15PM 39.9114 -82.2167 108° East 426 490 41,000  Climbing Indianapolis Center
09:16PM 39.8742 -82.0678 108° East 429 494 41,000  Level Indianapolis Center
09:17PM 39.8378 -81.9189 108° East 428 493 41,000  Level Indianapolis Center
09:18PM 39.8558 -81.7392 82° East 438 504 41,000  Level Indianapolis Center
09:18PM 39.8708 -81.6108 81° East 430 495 41,000 -60 Level Cleveland Center
09:19PM 39.8489 -81.4781 102° East 414 476 40,900  Descending Cleveland Center
09:20PM 39.8019 -81.3233 112° Southeast 414 476 41,000  Climbing Cleveland Center
09:21PM 39.7569 -81.1961 115° Southeast 421 484 41,000  Level Cleveland Center
09:22PM 39.7097 -81.0553 114° Southeast 421 484 41,000  Level Cleveland Center
09:25PM 39.6000 -80.7258 113° Southeast 422 486 41,000  Level Indianapolis Center
09:26PM 39.5519 -80.5853 114° Southeast 424 488 41,000 -480 Level Indianapolis Center
09:27PM 39.5039 -80.4331 112° Southeast 436 502 40,100 -900 Descending Washington Center
09:28PM 39.4553 -80.2928 114° Southeast 424 488 39,200 -1,200 Descending Washington Center
09:29PM 39.4086 -80.1500 113° Southeast 424 488 37,700 -2,160 Descending Washington Center
09:30PM 39.3597 -80.0075 114° Southeast 430 495 35,000 -3,000 Descending Washington Center
09:31PM 39.3125 -79.8758 115° Southeast 436 502 31,900 -2,040 Descending Washington Center
09:32PM 39.2886 -79.7214 101° East 436 502 31,000 -480 Descending Washington Center
09:33PM 39.2772 -79.5653 95° East 436 502 31,000 -300 Level Washington Center
09:34PM 39.2636 -79.4064 96° East 436 502 30,500 -1,500 Descending Washington Center
09:35PM 39.2481 -79.2394 97° East 431 496 28,100 -1,320 Descending Washington Center
09:36PM 39.2336 -79.0858 97° East 426 490 28,000 -1,140 Descending Washington Center
09:37PM 39.2214 -78.9378 96° East 426 490 25,900 -2,220 Descending Washington Center
09:38PM 39.2064 -78.7981 98° East 411 473 23,700 -2,220 Descending Washington Center
09:39PM 39.1931 -78.6633 97° East 393 452 21,500 -2,160 Descending Washington Center
09:40PM 39.1819 -78.5317 96° East 382 440 19,400 -2,040 Descending Washington Center
09:41PM 39.1683 -78.4028 98° East 368 423 17,400 -1,980 Descending Washington Center
09:42PM 39.1458 -78.2867 104° East 349 402 15,500 -1,620 Descending Washington Center
09:43PM 39.1169 -78.1786 109° East 330 380 14,200 -900 Descending Washington Center
09:44PM 39.0900 -78.0733 108° East 318 366 13,700 -720 Descending Washington Center
09:45PM 39.0650 -77.9683 107° East 308 354 12,800 -900 Descending Washington Center
09:46PM 39.0358 -77.8631 110° East 308 354 12,000 -840 Descending Washington Center
09:47PM 39.0125 -77.7717 108° East 308 354 11,200 -900 Descending Washington Center
09:48PM 38.9853 -77.6611 108° East 303 349 10,200 -1,260 Descending Washington Center
09:49PM 38.9500 -77.5667 116° Southeast 277 319 8,800 -1,260 Descending Potomac TRACON
09:50PM 38.9667 -77.4833 76° East 257 296 7,600 -1,140 Descending Potomac TRACON
09:51PM 39.0000 -77.4167 57° Northeast 229 264 6,600 -1,260 Descending Potomac TRACON
09:52PM 39.0333 -77.3667 49° Northeast 218 251 5,400 -1,020 Descending Potomac TRACON
09:53PM 39.0500 -77.2833 76° East 211 243 4,600 -960 Descending Potomac TRACON
09:54PM 39.0333 -77.2167 108° East 201 231 3,400 -840 Descending Potomac TRACON
09:55PM 39.0000 -77.1833 142° Southeast 180 207 3,000 -600 Descending Potomac TRACON
09:56PM 38.9667 -77.1500 142° Southeast 170 196 2,300 -780 Descending Potomac TRACON